Time;durP1;ratioP1;P1;durP2;ratioP2;P2;SDS_P1;SDS_P2;PMS_P1;PMS_P2;Temp;Humidity;BMP_temperature;BMP_pressure;BME280_temperature;BME280_humidity;BME280_pressure;Samples;Min_cycle;Max_cycle;Signal;HPM_P1;HPM_P2
2022/04/06 00:01:56;;;;;;;24.73;14.53;;;;;;;4.63;100.00;98639.41;1783676;80;21061;-71
2022/04/06 00:04:24;;;;;;;26.67;15.67;;;;;;;4.64;100.00;98629.53;1780330;80;21033;-70
2022/04/06 00:06:53;;;;;;;26.47;16.27;;;;;;;4.64;100.00;98622.35;1781136;80;21640;-71
2022/04/06 00:09:22;;;;;;;23.67;15.20;;;;;;;4.66;100.00;98620.34;1780886;80;21022;-71
2022/04/06 00:11:49;;;;;;;25.00;15.70;;;;;;;4.66;100.00;98612.31;1782607;80;21127;-70
2022/04/06 00:14:16;;;;;;;24.30;14.97;;;;;;;4.68;100.00;98615.65;1759419;80;21036;-72
2022/04/06 00:16:45;;;;;;;25.73;15.40;;;;;;;4.68;100.00;98612.14;1783309;80;21006;-71
2022/04/06 00:19:14;;;;;;;25.27;15.67;;;;;;;4.69;100.00;98599.07;1781309;80;21553;-70
2022/04/06 00:21:42;;;;;;;26.23;15.30;;;;;;;4.72;100.00;98603.59;1756958;80;21061;-70
2022/04/06 00:24:12;;;;;;;26.23;15.17;;;;;;;4.72;100.00;98605.44;1783865;79;21069;-70
2022/04/06 00:26:39;;;;;;;26.93;16.27;;;;;;;4.73;100.00;98602.59;1781778;80;21022;-71
2022/04/06 00:29:08;;;;;;;25.23;15.47;;;;;;;4.75;100.00;98599.75;1780018;80;21069;-70
2022/04/06 00:31:35;;;;;;;24.90;15.87;;;;;;;4.78;100.00;98595.89;1781109;80;21084;-70
2022/04/06 00:34:02;;;;;;;23.87;15.37;;;;;;;4.79;100.00;98593.05;1780270;80;21507;-69
2022/04/06 00:36:30;;;;;;;24.60;16.00;;;;;;;4.80;100.00;98603.24;1778980;80;21026;-70
2022/04/06 00:38:58;;;;;;;28.40;16.27;;;;;;;4.81;100.00;98599.57;1777345;80;21033;-70
2022/04/06 00:41:25;;;;;;;26.97;16.20;;;;;;;4.83;100.00;98600.23;1784309;80;21014;-70
2022/04/06 00:44:17;;;;;;;24.83;15.13;;;;;;;4.83;100.00;98599.72;1760818;80;21085;-70
2022/04/06 00:46:46;;;;;;;;;;;;;;;4.85;100.00;98593.72;1784748;80;21064;-70
2022/04/06 00:49:14;;;;;;;25.53;16.50;;;;;;;4.88;100.00;98589.85;1784869;80;20119;-71
2022/04/06 00:51:47;;;;;;;25.40;15.43;;;;;;;4.87;100.00;98591.70;1781185;80;21565;-70
2022/04/06 00:54:15;;;;;;;24.63;15.95;;;;;;;4.89;100.00;98582.16;1756420;81;21007;-70
2022/04/06 00:56:44;;;;;;;25.70;16.13;;;;;;;4.89;100.00;98580.31;1706418;84;21532;-72
2022/04/06 00:59:12;;;;;;;24.80;15.93;;;;;;;4.92;100.00;98584.00;1711127;84;21043;-70
2022/04/06 01:01:40;;;;;;;24.90;16.03;;;;;;;4.91;100.00;98582.31;1681105;84;21024;-71
2022/04/06 01:04:07;;;;;;;27.10;16.57;;;;;;;4.92;100.00;98580.45;1708797;84;21086;-71
2022/04/06 01:06:35;;;;;;;27.43;16.93;;;;;;;4.91;100.00;98580.14;1710905;84;21098;-71
2022/04/06 01:09:03;;;;;;;25.33;16.67;;;;;;;4.91;100.00;98579.62;1677202;84;21083;-70
2022/04/06 01:11:30;;;;;;;28.53;16.13;;;;;;;4.94;100.00;98575.28;1691802;83;21087;-72
2022/04/06 01:13:57;;;;;;;26.03;15.20;;;;;;;4.96;100.00;98571.09;1738661;81;21523;-71
2022/04/06 01:16:26;;;;;;;25.63;16.13;;;;;;;4.97;100.00;98563.38;1713328;82;20992;-71
2022/04/06 01:18:53;;;;;;;25.97;16.40;;;;;;;4.99;100.00;98560.53;1707434;84;21083;-72
2022/04/06 01:21:22;;;;;;;25.50;16.03;;;;;;;4.98;100.00;98562.38;1710020;83;21047;-71
2022/04/06 01:23:49;;;;;;;25.53;15.60;;;;;;;4.98;100.00;98555.69;1691153;84;21043;-70
2022/04/06 01:26:17;;;;;;;25.47;15.43;;;;;;;4.99;100.00;98547.95;1703357;83;21034;-71
2022/04/06 01:28:45;;;;;;;26.57;15.80;;;;;;;5.00;100.00;98550.16;1687883;84;21556;-71
2022/04/06 01:31:12;;;;;;;23.73;14.87;;;;;;;5.02;100.00;98546.80;1689615;84;21075;-71
2022/04/06 01:33:39;;;;;;;25.63;16.07;;;;;;;5.04;100.00;98546.94;1710989;84;21055;-70
2022/04/06 01:36:07;;;;;;;28.23;15.67;;;;;;;5.05;100.00;98550.48;1685475;84;21059;-70
2022/04/06 01:38:35;;;;;;;25.37;15.50;;;;;;;5.08;100.00;98543.41;1704888;83;21079;-70
2022/04/06 01:41:04;;;;;;;24.17;15.23;;;;;;;5.09;100.00;98545.92;1710929;84;21039;-70
2022/04/06 01:43:32;;;;;;;26.73;16.70;;;;;;;5.10;100.00;98538.23;1709572;84;21114;-71
2022/04/06 01:46:01;;;;;;;26.07;15.77;;;;;;;5.12;100.00;98536.73;1683040;84;21102;-71
2022/04/06 01:48:28;;;;;;;25.17;14.80;;;;;;;5.14;100.00;98540.89;1707582;83;21051;-70
2022/04/06 01:53:47;;;;;;;26.97;14.60;;;;;;;5.19;100.00;98528.32;1672096;85;21097;-71
2022/04/06 01:56:11;;;;;;;24.27;14.57;;;;;;;5.21;100.00;98536.19;1722547;82;21025;-71
2022/04/06 01:58:38;;;;;;;25.30;15.20;;;;;;;5.22;100.00;98533.83;1688122;84;21508;-71
2022/04/06 02:01:05;;;;;;;23.23;13.37;;;;;;;5.22;100.00;98541.35;1688482;83;21499;-70
2022/04/06 02:03:33;;;;;;;24.30;13.83;;;;;;;5.25;100.00;98542.87;1695197;83;21026;-70
2022/04/06 02:06:00;;;;;;;24.10;14.20;;;;;;;5.26;100.00;98540.02;1693470;83;21089;-70
2022/04/06 02:08:27;;;;;;;23.33;14.20;;;;;;;5.26;100.00;98548.05;1692117;83;21030;-71
2022/04/06 02:10:54;;;;;;;24.83;13.93;;;;;;;5.27;100.00;98548.38;1692273;83;21002;-74
2022/04/06 02:13:22;;;;;;;21.40;13.20;;;;;;;5.29;100.00;98561.12;1662900;83;21030;-71
2022/04/06 02:15:49;;;;;;;22.73;13.90;;;;;;;5.29;100.00;98565.14;1694968;84;21484;-71
2022/04/06 02:18:16;;;;;;;23.63;14.23;;;;;;;5.28;100.00;98564.80;1693004;84;21563;-72
2022/04/06 02:20:43;;;;;;;23.97;14.30;;;;;;;5.26;100.00;98561.45;1715364;84;21539;-71
2022/04/06 02:23:10;;;;;;;25.27;13.93;;;;;;;5.26;100.00;98558.77;1717678;83;21562;-70
2022/04/06 02:25:38;;;;;;;23.70;13.03;;;;;;;5.27;100.00;98564.45;1694331;83;21069;-71
2022/04/06 02:28:06;;;;;;;25.07;13.27;;;;;;;5.29;100.00;98559.78;1694556;83;21062;-71
2022/04/06 02:30:33;;;;;;;21.30;13.10;;;;;;;5.31;100.00;98565.80;1697590;83;21073;-70
2022/04/06 02:33:01;;;;;;;22.87;13.93;;;;;;;5.31;100.00;98567.62;1719888;83;21030;-70
2022/04/06 02:35:29;;;;;;;21.13;13.03;;;;;;;5.33;100.00;98567.80;1722563;83;21082;-71
2022/04/06 02:37:57;;;;;;;23.87;13.07;;;;;;;5.35;100.00;98566.77;1722246;83;21069;-71
2022/04/06 02:40:24;;;;;;;22.57;13.40;;;;;;;5.35;100.00;98578.34;1721627;83;21018;-71
2022/04/06 02:42:52;;;;;;;21.03;12.43;;;;;;;5.38;100.00;98569.11;1722463;83;21460;-71
2022/04/06 02:45:19;;;;;;;24.63;14.00;;;;;;;5.40;100.00;98573.78;1693111;83;21034;-71
2022/04/06 02:47:46;;;;;;;22.57;12.97;;;;;;;5.39;100.00;98574.30;1718176;83;21027;-71
2022/04/06 02:50:13;;;;;;;22.30;13.10;;;;;;;5.37;100.00;98572.30;1694906;83;21093;-70
2022/04/06 02:52:41;;;;;;;24.13;12.87;;;;;;;5.36;100.00;98578.66;1693620;84;21050;-70
2022/04/06 02:55:12;;;;;;;22.40;12.47;;;;;;;5.33;100.00;98581.70;1715883;82;21027;-71
2022/04/06 02:57:38;;;;;;;21.63;12.57;;;;;;;5.35;100.00;98588.21;1745747;82;21069;-70
2022/04/06 03:00:09;;;;;;;22.67;13.20;;;;;;;5.36;100.00;98597.42;1743426;82;21563;-69
2022/04/06 03:02:36;;;;;;;20.90;12.60;;;;;;;5.38;100.00;98607.98;1747112;82;21030;-72
2022/04/06 03:05:05;;;;;;;21.17;12.37;;;;;;;5.37;100.00;98597.77;1747725;82;21098;-71
2022/04/06 03:07:32;;;;;;;22.37;12.73;;;;;;;5.39;100.00;98604.30;1785494;79;21081;-70
2022/04/06 03:10:01;;;;;;;20.73;12.50;;;;;;;5.38;100.00;98610.66;1807485;79;21038;-70
2022/04/06 03:12:29;;;;;;;21.77;12.87;;;;;;;5.37;100.00;98612.51;1788987;79;21547;-71
2022/04/06 03:14:58;;;;;;;24.87;13.10;;;;;;;5.36;100.00;98614.02;1810603;79;21027;-70
2022/04/06 03:17:25;;;;;;;20.73;12.77;;;;;;;5.36;100.00;98617.52;1699311;82;21044;-70
2022/04/06 03:19:54;;;;;;;25.53;13.03;;;;;;;5.36;100.00;98620.20;1749909;81;21034;-70
2022/04/06 03:22:22;;;;;;;22.83;12.40;;;;;;;5.38;100.00;98620.03;1789041;79;21566;-71
2022/04/06 03:24:50;;;;;;;22.70;12.63;;;;;;;5.39;100.00;98611.83;1812351;79;21070;-71
2022/04/06 03:27:17;;;;;;;22.77;12.73;;;;;;;5.38;100.00;98616.84;1718463;82;21549;-71
2022/04/06 03:29:44;;;;;;;26.40;13.37;;;;;;;5.37;100.00;98613.85;1689653;82;21080;-71
2022/04/06 03:32:11;;;;;;;22.23;12.37;;;;;;;5.32;100.00;98615.69;1769347;81;21054;-70
2022/04/06 03:34:38;;;;;;;23.40;13.77;;;;;;;5.31;100.00;98623.91;1772582;81;21018;-70
2022/04/06 03:37:05;;;;;;;21.20;12.60;;;;;;;5.31;100.00;98626.10;1747565;81;21035;-71
2022/04/06 03:39:33;;;;;;;21.37;12.60;;;;;;;5.30;100.00;98635.65;1747682;81;21059;-71
2022/04/06 03:42:01;;;;;;;23.43;13.33;;;;;;;5.30;100.00;98638.33;1748072;81;21059;-71
2022/04/06 03:44:28;;;;;;;24.17;13.37;;;;;;;5.30;100.00;98634.31;1747710;81;21054;-70
2022/04/06 03:46:56;;;;;;;23.40;13.60;;;;;;;5.32;100.00;98625.59;1747954;81;21026;-70
2022/04/06 03:49:24;;;;;;;23.00;12.83;;;;;;;5.30;100.00;98632.45;1769064;81;21031;-71
2022/04/06 03:51:51;;;;;;;22.10;12.60;;;;;;;5.33;100.00;98638.00;1770896;81;21495;-70
2022/04/06 03:54:19;;;;;;;25.07;13.03;;;;;;;5.33;100.00;98644.70;1750993;81;21091;-70
2022/04/06 03:56:46;;;;;;;21.17;12.83;;;;;;;5.35;100.00;98648.03;1701399;82;21043;-71
2022/04/06 03:59:15;;;;;;;21.60;12.87;;;;;;;5.35;100.00;98645.84;1682372;85;21098;-70
2022/04/06 04:01:42;;;;;;;21.83;13.17;;;;;;;5.35;100.00;98643.16;1658129;85;21053;-69
2022/04/06 04:04:10;;;;;;;21.57;12.40;;;;;;;5.37;100.00;98649.20;1659103;85;21062;-70
2022/04/06 04:06:37;;;;;;;22.33;12.83;;;;;;;5.38;100.00;98657.05;1686336;85;21093;-71
2022/04/06 04:09:04;;;;;;;22.60;13.07;;;;;;;5.40;100.00;98655.55;1659943;85;21390;-70
2022/04/06 04:11:33;;;;;;;23.17;13.73;;;;;;;5.44;100.00;98655.55;1642953;84;21029;-71
2022/04/06 04:14:01;;;;;;;23.70;14.07;;;;;;;5.46;100.00;98654.88;1678671;85;21042;-70
2022/04/06 04:16:29;;;;;;;24.13;14.80;;;;;;;5.47;100.00;98664.09;1698431;84;21085;-70
2022/04/06 04:18:58;;;;;;;25.83;15.10;;;;;;;5.49;100.00;98668.77;1686318;84;21066;-70
2022/04/06 04:21:32;;;;;;;31.10;17.90;;;;;;;5.48;100.00;98671.11;1659477;85;21053;-71
2022/04/06 04:24:05;;;;;;;25.57;14.78;;;;;;;5.50;100.00;98670.94;1682779;84;21062;-71
2022/04/06 04:26:36;;;;;;;24.47;13.70;;;;;;;5.54;100.00;98678.95;1652617;86;21063;-70
2022/04/06 04:29:07;;;;;;;21.83;13.87;;;;;;;5.55;100.00;98678.48;1674765;86;21502;-70
2022/04/06 04:31:36;;;;;;;24.27;13.98;;;;;;;5.56;100.00;98696.22;1661759;85;21017;-71
2022/04/06 04:34:03;;;;;;;21.93;13.30;;;;;;;5.57;100.00;98704.09;1651392;86;21576;-71
2022/04/06 04:36:30;;;;;;;24.23;14.00;;;;;;;5.61;100.00;98700.09;1651658;86;21538;-71
2022/04/06 04:38:58;;;;;;;22.40;13.07;;;;;;;5.65;100.00;98693.36;1675439;84;21613;-71
2022/04/06 04:41:26;;;;;;;23.43;13.00;;;;;;;5.66;100.00;98702.23;1651741;86;21045;-70
2022/04/06 04:43:54;;;;;;;21.77;13.20;;;;;;;5.67;100.00;98700.72;1662288;85;21118;-71
2022/04/06 04:46:21;;;;;;;22.87;13.03;;;;;;;5.69;100.00;98710.77;1674485;85;21064;-70
2022/04/06 04:48:48;;;;;;;23.77;12.07;;;;;;;5.71;100.00;98717.30;1674610;85;21029;-71
2022/04/06 04:51:15;;;;;;;22.87;13.10;;;;;;;5.75;100.00;98724.50;1664663;85;21052;-68
2022/04/06 04:53:43;;;;;;;23.57;13.40;;;;;;;5.78;100.00;98733.55;1644390;84;21091;-69
2022/04/06 04:56:10;;;;;;;21.83;12.90;;;;;;;5.81;100.00;98731.88;1710007;82;21035;-69
2022/04/06 04:58:37;;;;;;;24.50;13.53;;;;;;;5.81;100.00;98734.05;1744129;82;21102;-68
2022/04/06 05:01:04;;;;;;;23.63;13.90;;;;;;;5.80;100.00;98735.04;1717997;82;20999;-69
2022/04/06 05:03:31;;;;;;;25.47;13.53;;;;;;;5.80;100.00;98742.27;1742757;82;21082;-69
2022/04/06 05:05:58;;;;;;;24.73;13.47;;;;;;;5.76;100.00;98750.33;1745107;82;21082;-69
2022/04/06 05:08:26;;;;;;;21.13;12.67;;;;;;;5.73;100.00;98755.52;1717531;82;21043;-68
2022/04/06 05:10:54;;;;;;;21.43;12.23;;;;;;;5.73;100.00;98766.76;1718900;82;21033;-68
2022/04/06 05:13:23;;;;;;;24.07;14.37;;;;;;;5.75;100.00;98772.27;1717042;82;21078;-69
2022/04/06 05:15:51;;;;;;;24.30;13.17;;;;;;;5.80;100.00;98783.33;1717233;82;21555;-67
2022/04/06 05:18:20;;;;;;;24.73;13.70;;;;;;;5.90;100.00;98786.66;1741576;82;21011;-68
2022/04/06 05:20:47;;;;;;;22.83;13.77;;;;;;;6.04;100.00;98784.32;1742590;82;21110;-67
2022/04/06 05:23:15;;;;;;;25.50;13.77;;;;;;;6.15;100.00;98781.25;1757549;81;21078;-68
2022/04/06 05:25:42;;;;;;;25.17;13.43;;;;;;;6.28;100.00;98779.34;1737228;82;21045;-68
2022/04/06 05:28:10;;;;;;;26.87;14.20;;;;;;;6.46;100.00;98780.44;1713933;82;21089;-71
2022/04/06 05:30:38;;;;;;;23.27;13.80;;;;;;;6.56;100.00;98791.80;1748391;82;21026;-68
2022/04/06 05:33:06;;;;;;;22.33;13.13;;;;;;;6.69;100.00;98803.31;1749592;82;21019;-70
2022/04/06 05:35:33;;;;;;;26.17;13.87;;;;;;;6.84;100.00;98805.58;1769421;80;21005;-72
2022/04/06 05:38:00;;;;;;;21.77;13.47;;;;;;;6.97;100.00;98822.97;1722241;81;21003;-71
2022/04/06 05:40:30;;;;;;;23.00;13.60;;;;;;;7.08;100.00;98831.96;1746487;81;21042;-70
2022/04/06 05:42:57;;;;;;;22.57;13.93;;;;;;;7.19;100.00;98838.80;1767293;81;21019;-74
2022/04/06 05:45:24;;;;;;;21.13;12.93;;;;;;;7.32;100.00;98856.51;1764639;81;21045;-71
2022/04/06 05:47:51;;;;;;;23.13;12.50;;;;;;;7.41;100.00;98878.28;1768440;81;21015;-68
2022/04/06 05:50:18;;;;;;;22.63;12.73;;;;;;;7.50;100.00;98904.62;1749721;81;21082;-67
2022/04/06 05:52:48;;;;;;;20.63;12.20;;;;;;;7.56;100.00;98921.41;1764118;81;21195;-68
2022/04/06 05:55:16;;;;;;;20.20;12.33;;;;;;;7.53;100.00;98945.97;1752285;79;21019;-68
2022/04/06 05:57:45;;;;;;;18.83;11.40;;;;;;;7.60;100.00;98973.83;1810562;79;20999;-67
2022/04/06 06:00:14;;;;;;;21.63;12.27;;;;;;;7.70;100.00;98984.86;1808609;79;21078;-67
2022/04/06 06:02:44;;;;;;;21.03;11.43;;;;;;;7.83;100.00;99007.99;1807621;79;21019;-68
2022/04/06 06:05:12;;;;;;;20.67;11.17;;;;;;;7.94;100.00;99022.89;1715349;82;21030;-67
2022/04/06 06:07:39;;;;;;;22.07;11.87;;;;;;;8.14;100.00;99036.21;1737875;82;21065;-69
2022/04/06 06:10:09;;;;;;;19.47;11.47;;;;;;;8.35;100.00;99057.58;1686346;83;21035;-68
2022/04/06 06:12:36;;;;;;;21.37;11.83;;;;;;;8.51;100.00;99069.59;1712841;83;21062;-68
2022/04/06 06:15:06;;;;;;;17.10;10.10;;;;;;;8.55;100.00;99079.50;1763832;80;21011;-68
2022/04/06 06:17:39;;;;;;;20.83;10.23;;;;;;;8.70;100.00;99105.16;1769356;81;21469;-68
2022/04/06 06:20:07;;;;;;;16.07;9.03;;;;;;;8.87;100.00;99118.82;1767775;81;21567;-69
2022/04/06 06:22:35;;;;;;;15.00;8.00;;;;;;;9.06;100.00;99138.18;1725238;81;21031;-67
2022/04/06 06:25:03;;;;;;;18.40;9.03;;;;;;;9.18;100.00;99158.81;1748588;81;21082;-68
2022/04/06 06:27:41;;;;;;;17.03;8.60;;;;;;;9.31;100.00;99177.87;1769663;80;21041;-64
2022/04/06 06:30:12;;;;;;;14.23;7.70;;;;;;;9.43;100.00;99195.81;1677414;85;21118;-66
2022/04/06 06:32:40;;;;;;;16.50;8.73;;;;;;;9.47;100.00;99230.36;1636647;85;21050;-66
2022/04/06 06:35:08;;;;;;;13.83;7.80;;;;;;;9.53;100.00;99245.48;1660740;86;21014;-65
2022/04/06 06:37:46;;;;;;;16.93;9.43;;;;;;;9.70;100.00;99256.42;1660801;86;21058;-66
2022/04/06 06:40:13;;;;;;;19.07;8.77;;;;;;;9.84;100.00;99271.82;1657131;86;21054;-67
2022/04/06 06:42:41;;;;;;;20.35;8.75;;;;;;;10.00;100.00;99279.40;1663398;86;21101;-68
2022/04/06 06:45:09;;;;;;;12.93;7.63;;;;;;;10.02;100.00;99292.20;1639096;86;21122;-68
2022/04/06 06:47:37;;;;;;;16.95;7.87;;;;;;;10.10;100.00;99296.17;1663483;86;21022;-68
2022/04/06 06:50:06;;;;;;;12.73;7.30;;;;;;;10.29;100.00;99297.48;1665843;86;21599;-67
2022/04/06 06:55:05;;;;;;;10.13;6.60;;;;;;;10.49;100.00;99316.67;1509830;94;21151;-67
2022/04/06 06:57:32;;;;;;;12.00;7.45;;;;;;;10.67;100.00;99330.31;1514510;93;21150;-67
2022/04/06 06:59:59;;;;;;;14.35;7.10;;;;;;;10.74;100.00;99335.29;1507393;94;21625;-67
2022/04/06 07:02:27;;;;;;;15.48;8.35;;;;;;;10.82;100.00;99354.13;1503985;94;21128;-69
2022/04/06 07:04:54;;;;;;;10.15;6.20;;;;;;;10.95;100.00;99356.97;1508933;94;21070;-69
2022/04/06 07:07:21;;;;;;;12.13;6.00;;;;;;;11.10;100.00;99375.03;1506445;94;21247;-67
2022/04/06 07:09:50;;;;;;;12.50;5.50;;;;;;;11.16;100.00;99386.45;1497654;94;21567;-67
2022/04/06 07:12:19;;;;;;;9.95;5.30;;;;;;;11.28;100.00;99396.25;1488704;95;21602;-67
2022/04/06 07:14:46;;;;;;;6.22;4.42;;;;;;;11.39;100.00;99412.00;1507838;94;21147;-70
2022/04/06 07:17:13;;;;;;;5.85;4.53;;;;;;;11.54;100.00;99422.27;1512770;94;21142;-69
2022/04/06 07:19:41;;;;;;;11.83;5.78;;;;;;;11.69;100.00;99434.39;1514478;93;21144;-66
2022/04/06 07:22:08;;;;;;;7.45;4.72;;;;;;;11.83;100.00;99436.72;1518850;94;21107;-67
2022/04/06 07:24:36;;;;;;;6.03;4.33;;;;;;;11.92;100.00;99453.70;1515101;93;21099;-67
2022/04/06 07:27:04;;;;;;;7.00;4.62;;;;;;;11.94;100.00;99463.83;1553916;90;21084;-67
2022/04/06 07:29:31;;;;;;;8.93;5.08;;;;;;;11.85;100.00;99476.63;1566328;88;21144;-67
2022/04/06 07:31:58;;;;;;;7.75;4.87;;;;;;;11.90;100.00;99468.80;1566904;88;21103;-70
2022/04/06 07:34:26;;;;;;;7.37;5.00;;;;;;;12.13;100.00;99471.30;1568332;90;21596;-67
2022/04/06 07:36:53;;;;;;;11.33;5.03;;;;;;;12.35;100.00;99482.94;1557360;91;21097;-67
2022/04/06 07:39:20;;;;;;;6.75;4.40;;;;;;;12.53;100.00;99487.87;1557994;90;21153;-67
2022/04/06 07:41:47;;;;;;;5.87;4.33;;;;;;;12.63;100.00;99494.84;1536463;92;21084;-68
2022/04/06 07:44:15;;;;;;;7.60;4.70;;;;;;;12.81;100.00;99495.16;1574942;90;21640;-69
2022/04/06 07:46:43;;;;;;;7.90;4.80;;;;;;;12.76;100.00;99505.77;1552233;90;21096;-69
2022/04/06 07:49:10;;;;;;;13.70;5.90;;;;;;;12.73;100.00;99511.62;1562790;89;21076;-72
2022/04/06 07:51:38;;;;;;;7.78;4.75;;;;;;;12.77;100.00;99518.31;1568845;90;21049;-68
2022/04/06 07:54:05;;;;;;;5.87;4.55;;;;;;;12.87;100.00;99514.73;1570950;90;21171;-69
2022/04/06 07:56:32;;;;;;;8.13;4.58;;;;;;;12.98;100.00;99535.55;1539061;92;21126;-68
2022/04/06 07:59:00;;;;;;;8.60;4.80;;;;;;;12.89;100.00;99551.14;1659559;85;20999;-65
2022/04/06 08:01:28;;;;;;;16.20;8.70;;;;;;;12.82;100.00;99546.19;1667513;85;21567;-68
2022/04/06 08:03:55;;;;;;;12.47;7.80;;;;;;;12.79;100.00;99556.09;1665617;85;21077;-68
2022/04/06 08:06:24;;;;;;;10.60;6.62;;;;;;;12.89;100.00;99552.00;1693259;85;20987;-68
2022/04/06 08:08:53;;;;;;;8.23;5.42;;;;;;;12.98;100.00;99556.76;1664881;85;21499;-67
2022/04/06 08:11:21;;;;;;;6.60;4.42;;;;;;;13.22;100.00;99557.31;1665714;85;21081;-68
2022/04/06 08:13:49;;;;;;;8.65;4.53;;;;;;;13.41;100.00;99552.53;1689083;85;21062;-69
2022/04/06 08:16:16;;;;;;;7.08;4.20;;;;;;;13.59;100.00;99567.45;1691084;84;21093;-69
2022/04/06 08:18:45;;;;;;;9.78;5.35;;;;;;;13.61;100.00;99559.94;1662491;84;21709;-72
2022/04/06 08:21:12;;;;;;;7.28;4.67;;;;;;;13.46;100.00;99570.42;1678189;84;21073;-68
2022/04/06 08:23:39;;;;;;;9.15;4.78;;;;;;;13.56;100.00;99561.89;1655213;85;21033;-69
2022/04/06 08:26:07;;;;;;;7.33;4.30;;;;;;;13.86;100.00;99554.30;1717005;82;21058;-68
2022/04/06 08:28:34;;;;;;;6.28;4.25;;;;;;;14.26;100.00;99563.59;1741539;82;21516;-72
2022/04/06 08:31:01;;;;;;;6.83;3.83;;;;;;;14.44;100.00;99563.27;1741611;81;21071;-68
2022/04/06 08:33:29;;;;;;;5.53;3.83;;;;;;;14.67;100.00;99553.08;1771947;80;21066;-68
2022/04/06 08:35:56;;;;;;;8.78;4.22;;;;;;;14.78;100.00;99560.59;1765842;80;21043;-69
2022/04/06 08:38:24;;;;;;;9.25;3.85;;;;;;;14.78;100.00;99560.59;1738356;82;21015;-68
2022/04/06 08:40:51;;;;;;;8.93;3.90;;;;;;;13.99;100.00;99564.36;1738409;82;21082;-68
2022/04/06 08:43:19;;;;;;;5.62;3.75;;;;;;;13.99;100.00;99564.36;1705069;82;21540;-68
2022/04/06 08:45:46;;;;;;;6.22;3.87;;;;;;;13.72;100.00;99569.38;1756088;81;21068;-69
2022/04/06 08:48:14;;;;;;;9.83;3.80;;;;;;;13.72;100.00;99562.06;1758515;81;21110;-68
2022/04/06 08:50:42;;;;;;;13.25;4.10;;;;;;;13.86;100.00;99571.09;1727880;82;21102;-69
2022/04/06 08:53:09;;;;;;;8.35;4.25;;;;;;;14.05;100.00;99574.40;1731546;81;21474;-69
2022/04/06 08:55:38;;;;;;;4.83;3.40;;;;;;;14.31;100.00;99578.23;1749218;80;21053;-68
2022/04/06 08:58:05;;;;;;;9.75;3.52;;;;;;;14.64;99.01;99565.73;1784193;80;21565;-68
2022/04/06 09:00:33;;;;;;;11.60;3.50;;;;;;;14.68;91.78;99565.61;1780623;80;21034;-72
2022/04/06 09:03:00;;;;;;;3.75;3.15;;;;;;;14.63;94.78;99569.52;1757582;80;20998;-69
2022/04/06 09:05:28;;;;;;;7.30;3.52;;;;;;;14.90;93.83;99567.08;1782191;80;21021;-68
2022/04/06 09:07:56;;;;;;;6.40;3.37;;;;;;;14.90;93.83;99567.08;1753160;81;21367;-67
2022/04/06 09:10:33;;;;;;;4.85;3.10;;;;;;;14.99;84.50;99550.83;1752081;80;21053;-69
2022/04/06 09:13:17;;;;;;;7.12;3.17;;;;;;;14.99;86.41;99551.36;1759774;80;21581;-68
2022/04/06 09:15:46;;;;;;;4.53;3.58;;;;;;;15.28;90.49;99558.23;1783612;80;21022;-68
2022/04/06 09:18:14;;;;;;;10.72;4.08;;;;;;;15.28;90.49;99558.23;1778539;80;21048;-69
2022/04/06 09:20:41;;;;;;;7.58;3.67;;;;;;;15.36;83.42;99543.53;1779822;80;21017;-69
2022/04/06 09:23:08;;;;;;;8.48;3.30;;;;;;;15.33;82.99;99561.66;1779499;80;21117;-69
2022/04/06 09:25:38;;;;;;;5.65;4.00;;;;;;;15.17;80.58;99547.97;1779016;80;21021;-69
2022/04/06 09:28:11;;;;;;;7.40;3.92;;;;;;;15.23;87.71;99553.94;1779919;80;21116;-68
2022/04/06 09:30:41;;;;;;;7.85;4.25;;;;;;;15.52;82.03;99547.67;1731036;81;21050;-66
2022/04/06 09:33:19;;;;;;;10.40;3.60;;;;;;;15.43;77.24;99560.69;1781199;79;21048;-69
2022/04/06 09:35:46;;;;;;;3.83;3.10;;;;;;;15.34;78.85;99561.98;1784097;80;21065;-68
2022/04/06 09:38:23;;;;;;;7.25;3.30;;;;;;;15.14;77.82;99571.03;1781366;80;21061;-70
2022/04/06 09:41:05;;;;;;;6.40;3.80;;;;;;;14.69;78.80;99562.69;1784938;80;21064;-69
2022/04/06 09:43:34;;;;;;;11.78;4.62;;;;;;;14.40;84.27;99567.47;1783860;80;21021;-68
2022/04/06 09:49:09;;;;;;;7.08;3.05;;;;;;;14.89;88.59;99563.20;1781276;80;21064;-69
2022/04/06 09:51:42;;;;;;;7.35;3.22;;;;;;;15.06;84.18;99563.08;1758375;81;20990;-70
2022/04/06 09:54:14;;;;;;;11.45;3.75;;;;;;;15.24;80.58;99561.58;1753055;80;21030;-71
2022/04/06 09:56:42;;;;;;;8.25;3.20;;;;;;;15.37;74.09;99560.20;1735764;81;21527;-68
2022/04/06 09:59:10;;;;;;;10.78;3.60;;;;;;;15.47;73.96;99563.28;1710838;82;21527;-68
2022/04/06 10:01:41;;;;;;;4.42;3.58;;;;;;;15.65;69.73;99553.08;1739953;82;21074;-68
2022/04/06 10:04:12;;;;;;;6.20;2.90;;;;;;;15.69;68.41;99554.84;1627531;85;21058;-67
2022/04/06 10:06:41;;;;;;;3.80;2.92;;;;;;;15.69;68.41;99554.84;1685763;85;21032;-68
2022/04/06 10:09:10;;;;;;;5.72;3.10;;;;;;;15.40;68.24;99558.92;1666490;85;21118;-68
2022/04/06 10:11:40;;;;;;;7.08;3.40;;;;;;;15.16;71.71;99570.83;1663802;85;21040;-70
2022/04/06 10:14:09;;;;;;;5.00;3.17;;;;;;;14.75;72.83;99564.59;1662733;85;21079;-69
2022/04/06 10:16:38;;;;;;;6.33;3.33;;;;;;;14.75;72.83;99564.59;1677265;83;21659;-70
2022/04/06 10:19:06;;;;;;;5.05;2.77;;;;;;;14.62;79.25;99568.66;1663299;85;21103;-69
2022/04/06 10:22:00;;;;;;;4.90;3.17;;;;;;;14.62;79.25;99568.66;1686183;85;21103;-66
2022/04/06 10:24:57;;;;;;;5.67;2.85;;;;;;;14.83;77.48;99568.14;1636810;87;21784;-66
2022/04/06 10:27:29;;;;;;;5.33;3.08;;;;;;;15.29;73.56;99558.52;1630086;88;21209;-67
2022/04/06 10:30:17;;;;;;;9.50;3.45;;;;;;;15.23;70.45;99570.28;1608170;88;21659;-67
2022/04/06 10:32:46;;;;;;;6.17;3.22;;;;;;;14.77;70.97;99573.38;1608243;88;21626;-68
2022/04/06 10:38:09;;;;;;;4.15;3.10;;;;;;;14.76;77.31;99577.13;1583082;90;21105;-68
2022/04/06 10:40:56;;;;;;;4.85;2.67;;;;;;;14.79;77.40;99582.69;1586454;90;21658;-67
2022/04/06 10:43:40;;;;;;;7.67;3.10;;;;;;;14.65;76.53;99567.42;1586847;90;21101;-68
2022/04/06 10:46:09;;;;;;;6.70;4.05;;;;;;;14.68;79.52;99579.22;1578253;90;21129;-66
2022/04/06 10:48:56;;;;;;;5.72;3.10;;;;;;;14.71;75.26;99584.25;1584451;90;21041;-65
2022/04/06 10:51:33;;;;;;;13.85;3.87;;;;;;;14.67;73.50;99579.75;1567232;90;21180;-68
2022/04/06 10:54:18;;;;;;;17.32;6.15;;;;;;;14.43;72.94;99585.27;1570701;90;21097;-67
2022/04/06 10:56:59;;;;;;;11.53;3.60;;;;;;;14.31;76.84;99580.13;1535744;92;21121;-68
2022/04/06 10:59:29;;;;;;;20.97;6.30;;;;;;;14.28;78.74;99589.52;1534854;92;21082;-66
2022/04/06 11:02:21;;;;;;;8.08;3.50;;;;;;;14.16;76.55;99581.64;1561952;90;21607;-70
2022/04/06 11:04:48;;;;;;;8.25;3.58;;;;;;;14.30;77.53;99591.50;1533978;92;21168;-68
2022/04/06 11:10:06;;;;;;;6.00;3.72;;;;;;;14.30;77.53;99591.50;1553820;92;21153;-67
2022/04/06 11:10:07;;;;;;;5.58;3.40;;;;;;;14.29;73.24;99585.77;1558678;90;21050;-68
2022/04/06 11:12:35;;;;;;;7.58;3.47;;;;;;;14.23;77.03;99594.20;1561877;91;21546;-68
2022/04/06 11:15:09;;;;;;;7.65;3.37;;;;;;;14.27;76.56;99583.78;1580703;91;21105;-70
2022/04/06 11:17:39;;;;;;;4.65;2.58;;;;;;;14.32;77.15;99581.78;1559147;89;21082;-67
2022/04/06 11:20:20;;;;;;;6.28;3.47;;;;;;;14.41;76.05;99574.59;1589027;86;21653;-68
2022/04/06 11:22:53;;;;;;;7.10;3.98;;;;;;;14.54;73.47;99583.81;1669234;85;21157;-68
2022/04/06 11:25:23;;;;;;;9.90;4.05;;;;;;;14.61;70.21;99584.69;1591880;89;21038;-68
2022/04/06 11:27:51;;;;;;;4.95;2.60;;;;;;;14.75;71.56;99589.08;1550602;92;21675;-66
2022/04/06 11:30:20;;;;;;;4.70;2.42;;;;;;;14.99;67.21;99583.50;1547283;92;21118;-68
2022/04/06 11:32:54;;;;;;;6.08;2.60;;;;;;;15.32;67.53;99578.53;1555326;92;21152;-69
2022/04/06 11:35:20;;;;;;;;;;;;;;;15.64;64.75;99576.45;1606940;89;21154;-67
2022/04/06 11:37:49;;;;;;;7.37;2.67;;;;;;;15.81;60.65;99570.86;1616468;88;20152;-67
2022/04/06 11:40:20;;;;;;;4.62;2.80;;;;;;;15.96;62.16;99569.20;1624358;88;21588;-69
2022/04/06 11:42:54;;;;;;;4.83;2.50;;;;;;;15.90;57.73;99565.46;1621605;88;21099;-70